Time;durP1;ratioP1;P1;durP2;ratioP2;P2;SDS_P1;SDS_P2;PMS_P1;PMS_P2;Temp;Humidity;BMP_temperature;BMP_pressure;BME280_temperature;BME280_humidity;BME280_pressure;Samples;Min_cycle;Max_cycle;Signal;HPM_P1;HPM_P2
2022/05/10 00:00:56;;;;;;;14.43;9.80;;;;;;;14.50;100.00;100871.47;5074888;28;20151;-74
2022/05/10 00:03:31;;;;;;;14.15;9.80;;;;;;;14.45;100.00;100865.53;5075137;28;20045;-74
2022/05/10 00:06:00;;;;;;;16.02;10.10;;;;;;;14.47;100.00;100871.66;5073440;28;20152;-74
2022/05/10 00:08:29;;;;;;;11.63;8.90;;;;;;;14.47;100.00;100864.47;5073538;28;20058;-74
2022/05/10 00:10:58;;;;;;;13.98;9.88;;;;;;;14.56;100.00;100863.00;5074605;28;20041;-74
2022/05/10 00:13:27;;;;;;;12.20;9.45;;;;;;;14.52;100.00;100853.44;5074765;28;20048;-74
2022/05/10 00:15:56;;;;;;;14.48;9.35;;;;;;;14.63;100.00;100861.63;5074446;28;20051;-73
2022/05/10 00:18:28;;;;;;;11.82;8.98;;;;;;;14.64;100.00;100860.66;5074822;28;20052;-76
2022/05/10 00:20:57;;;;;;;14.93;8.57;;;;;;;14.75;100.00;100854.56;5073306;28;20057;-75
2022/05/10 00:23:26;;;;;;;13.25;8.73;;;;;;;14.66;100.00;100849.81;5074445;28;20072;-75
2022/05/10 00:25:54;;;;;;;11.10;8.77;;;;;;;14.49;100.00;100853.66;5074041;28;20059;-75
2022/05/10 00:28:23;;;;;;;11.20;8.50;;;;;;;14.69;100.00;100852.31;5073104;28;20049;-75
2022/05/10 00:30:52;;;;;;;9.88;8.18;;;;;;;14.74;100.00;100850.16;5073111;28;20056;-76
2022/05/10 00:33:26;;;;;;;13.07;8.85;;;;;;;14.53;100.00;100849.78;5074594;28;20166;-76
2022/05/10 00:35:55;;;;;;;15.25;9.38;;;;;;;14.70;100.00;100846.84;5073015;28;20051;-74
2022/05/10 00:38:28;;;;;;;11.55;8.25;;;;;;;14.66;100.00;100845.31;5073030;28;20082;-75
2022/05/10 00:40:56;;;;;;;13.93;9.10;;;;;;;14.64;100.00;100838.31;5074134;28;20079;-75
2022/05/10 00:43:30;;;;;;;11.70;8.77;;;;;;;14.71;100.00;100845.00;5068926;28;20525;-75
2022/05/10 00:46:02;;;;;;;10.63;8.05;;;;;;;14.71;100.00;100832.44;5054128;28;20044;-76
2022/05/10 00:48:36;;;;;;;11.90;8.27;;;;;;;14.57;100.00;100827.13;5069256;28;20091;-78
2022/05/10 00:51:13;;;;;;;10.18;8.27;;;;;;;14.66;100.00;100829.19;5054126;28;20037;-80
2022/05/10 00:53:52;;;;;;;12.75;8.80;;;;;;;14.60;100.00;100827.81;5054132;28;20120;-81
2022/05/10 00:56:32;;;;;;;11.10;8.13;;;;;;;14.50;100.00;100828.53;5052831;28;20067;-79
2022/05/10 00:59:08;;;;;;;10.85;7.65;;;;;;;14.47;100.00;100823.34;5067411;28;20044;-79
2022/05/10 01:01:38;;;;;;;12.05;8.70;;;;;;;14.43;100.00;100817.31;5074078;28;20122;-79
2022/05/10 01:04:18;;;;;;;12.00;8.10;;;;;;;14.62;100.00;100826.84;5074088;28;20044;-78
2022/05/10 01:06:52;;;;;;;10.60;7.85;;;;;;;14.67;100.00;100824.69;5073793;28;20210;-78
2022/05/10 01:09:34;;;;;;;9.68;7.90;;;;;;;14.69;100.00;100818.25;5056809;28;20047;-75
2022/05/10 01:12:08;;;;;;;12.32;8.20;;;;;;;14.43;100.00;100814.63;5052354;28;20980;-76
2022/05/10 01:14:48;;;;;;;9.57;7.60;;;;;;;14.40;100.00;100811.28;5053862;28;20413;-78
2022/05/10 01:17:17;;;;;;;12.02;8.30;;;;;;;14.30;100.00;100817.28;5053508;28;20144;-77
2022/05/10 01:19:46;;;;;;;11.73;8.05;;;;;;;14.25;100.00;100808.66;5053046;28;20086;-76
2022/05/10 01:22:27;;;;;;;13.45;8.13;;;;;;;14.22;100.00;100808.88;5052700;28;20041;-75
2022/05/10 01:25:12;;;;;;;9.88;8.00;;;;;;;14.24;100.00;100815.00;5068097;28;20124;-76
2022/05/10 01:27:52;;;;;;;14.48;8.57;;;;;;;14.21;100.00;100812.53;5053500;28;20474;-82
2022/05/10 01:30:24;;;;;;;10.45;7.78;;;;;;;14.16;100.00;100808.41;5053523;28;20067;-77
2022/05/10 01:35:58;;;;;;;10.95;7.47;;;;;;;14.24;100.00;100803.41;5072989;28;21900;-77
2022/05/10 01:38:33;;;;;;;12.82;7.30;;;;;;;14.25;100.00;100805.97;5073520;28;20044;-76
2022/05/10 01:41:07;;;;;;;11.00;7.28;;;;;;;14.16;100.00;100801.22;5072980;28;20487;-76
2022/05/10 01:43:41;;;;;;;10.55;7.43;;;;;;;13.98;100.00;100805.09;5073188;28;20119;-76
2022/05/10 01:46:12;;;;;;;;;;;;;;;14.01;100.00;100805.78;5072636;28;20106;-77
2022/05/10 01:48:44;;;;;;;9.45;7.20;;;;;;;13.86;100.00;100806.78;5071640;28;20004;-77
2022/05/10 01:51:20;;;;;;;12.35;7.13;;;;;;;14.00;100.00;100803.22;5073551;28;20040;-76
2022/05/10 01:53:48;;;;;;;10.85;7.30;;;;;;;13.97;100.00;100803.41;5073010;28;20037;-76
2022/05/10 01:56:20;;;;;;;14.85;7.72;;;;;;;14.07;100.00;100801.81;5073351;28;20041;-77
2022/05/10 01:58:54;;;;;;;11.02;7.57;;;;;;;13.96;100.00;100799.00;5071821;28;20433;-74
2022/05/10 02:01:29;;;;;;;11.95;7.97;;;;;;;14.02;100.00;100793.25;5073238;28;20075;-74
2022/05/10 02:04:02;;;;;;;11.18;7.15;;;;;;;14.07;100.00;100793.78;5072961;28;20119;-73
2022/05/10 02:06:35;;;;;;;11.48;7.75;;;;;;;13.93;100.00;100797.38;5068559;28;20136;-74
2022/05/10 02:09:10;;;;;;;10.23;7.60;;;;;;;14.17;100.00;100784.16;5052577;28;20401;-74
2022/05/10 02:11:42;;;;;;;10.40;7.78;;;;;;;14.13;100.00;100796.06;5051798;28;20453;-74
2022/05/10 02:14:15;;;;;;;10.60;7.32;;;;;;;14.09;100.00;100791.00;5051422;28;20075;-74
2022/05/10 02:16:51;;;;;;;12.52;8.38;;;;;;;13.91;100.00;100796.63;5051339;28;20504;-74
2022/05/10 02:19:24;;;;;;;9.85;8.10;;;;;;;14.14;100.00;100795.09;5053245;28;20037;-74
2022/05/10 02:21:56;;;;;;;10.60;7.57;;;;;;;14.24;100.00;100795.34;5052743;28;20044;-75
2022/05/10 02:24:28;;;;;;;14.57;7.43;;;;;;;14.33;100.00;100790.22;5051701;28;20055;-76
2022/05/10 02:27:00;;;;;;;12.88;7.32;;;;;;;14.38;100.00;100783.69;5052722;28;20127;-77
2022/05/10 02:29:33;;;;;;;15.07;7.47;;;;;;;14.25;100.00;100787.19;5052927;28;20072;-74
2022/05/10 02:34:58;;;;;;;12.23;8.07;;;;;;;14.06;100.00;100784.00;5056577;28;20527;-76
2022/05/10 02:37:26;;;;;;;10.98;8.18;;;;;;;14.09;100.00;100781.16;5055435;28;20045;-76
2022/05/10 02:39:54;;;;;;;9.50;7.57;;;;;;;14.11;100.00;100778.34;5056196;28;20548;-76
2022/05/10 02:42:24;;;;;;;9.68;7.72;;;;;;;14.16;100.00;100785.13;5056714;28;20048;-74
2022/05/10 02:44:54;;;;;;;10.05;7.63;;;;;;;14.27;100.00;100785.25;5056029;28;20063;-75
2022/05/10 02:47:33;;;;;;;10.75;7.95;;;;;;;14.22;100.00;100776.66;5056453;28;20055;-75
2022/05/10 02:50:03;;;;;;;10.68;8.10;;;;;;;14.28;100.00;100778.97;5054987;28;20146;-79
2022/05/10 02:52:32;;;;;;;11.48;8.18;;;;;;;14.33;100.00;100779.50;5056519;28;20044;-76
2022/05/10 02:55:07;;;;;;;11.13;8.02;;;;;;;14.21;100.00;100780.31;5056207;28;20116;-76
2022/05/10 02:57:36;;;;;;;12.50;8.70;;;;;;;14.03;100.00;100773.50;5055191;28;20049;-78
2022/05/10 03:00:07;;;;;;;11.88;8.40;;;;;;;13.98;100.00;100771.09;5055780;28;20045;-76
2022/05/10 03:02:44;;;;;;;12.07;8.40;;;;;;;13.99;100.00;100774.63;5056370;28;20045;-77
2022/05/10 03:05:14;;;;;;;12.98;8.75;;;;;;;14.03;100.00;100781.53;5055707;28;20064;-77
2022/05/10 03:07:42;;;;;;;12.18;8.25;;;;;;;14.09;100.00;100775.78;5056140;28;20091;-77
2022/05/10 03:10:11;;;;;;;11.05;8.45;;;;;;;14.06;100.00;100772.41;5055777;28;20045;-76
2022/05/10 03:12:39;;;;;;;10.25;7.97;;;;;;;14.04;100.00;100775.22;5054733;28;20083;-77
2022/05/10 03:15:09;;;;;;;13.07;7.50;;;;;;;14.03;100.00;100778.84;5054523;28;20060;-76
2022/05/10 03:17:38;;;;;;;12.15;8.13;;;;;;;13.82;100.00;100782.97;5055647;28;20050;-76
2022/05/10 03:20:07;;;;;;;10.15;8.38;;;;;;;13.87;100.00;100772.78;5055558;28;20049;-78
2022/05/10 03:22:36;;;;;;;9.57;7.80;;;;;;;13.91;100.00;100771.63;5055515;28;20052;-77
2022/05/10 03:25:06;;;;;;;11.00;7.63;;;;;;;14.00;100.00;100776.38;5055551;28;20040;-77
2022/05/10 03:27:37;;;;;;;10.68;8.02;;;;;;;13.98;100.00;100775.59;5055810;28;20053;-77
2022/05/10 03:30:06;;;;;;;10.10;7.45;;;;;;;13.97;100.00;100773.88;5055407;28;20041;-77
2022/05/10 03:32:34;;;;;;;12.23;8.13;;;;;;;13.84;100.00;100778.34;5055598;28;20049;-77
2022/05/10 03:35:05;;;;;;;11.57;8.40;;;;;;;13.91;100.00;100779.69;5054009;28;20045;-78
2022/05/10 03:37:34;;;;;;;9.98;7.45;;;;;;;13.91;100.00;100777.00;5054366;28;20064;-77
2022/05/10 03:40:03;;;;;;;10.07;8.13;;;;;;;13.90;100.00;100767.22;5053920;28;20049;-77
2022/05/10 03:42:32;;;;;;;10.43;7.82;;;;;;;14.02;100.00;100774.47;5053445;28;20127;-78
2022/05/10 03:45:00;;;;;;;11.25;7.63;;;;;;;14.10;100.00;100777.50;5054928;28;20045;-77
2022/05/10 03:47:30;;;;;;;12.65;8.05;;;;;;;14.07;100.00;100779.50;5054637;28;20045;-76
2022/05/10 03:49:58;;;;;;;12.13;8.20;;;;;;;14.20;100.00;100778.59;5055136;28;20044;-76
2022/05/10 03:52:28;;;;;;;11.18;7.55;;;;;;;14.32;100.00;100783.13;5053923;28;20049;-76
2022/05/10 03:54:56;;;;;;;10.88;7.85;;;;;;;14.32;100.00;100780.47;5053699;28;20045;-76
2022/05/10 03:57:24;;;;;;;9.93;7.60;;;;;;;14.35;100.00;100782.06;5053900;28;20414;-77
2022/05/10 03:59:54;;;;;;;9.90;7.22;;;;;;;14.86;100.00;100777.69;5053902;28;20071;-78
2022/05/10 04:02:22;;;;;;;9.80;7.72;;;;;;;14.93;100.00;100777.22;5055129;28;20365;-77
2022/05/10 04:04:51;;;;;;;11.77;7.25;;;;;;;15.70;100.00;100770.81;5053897;28;20049;-77
2022/05/10 04:07:19;;;;;;;8.70;6.47;;;;;;;16.41;100.00;100783.44;5054955;28;20040;-77
2022/05/10 04:09:49;;;;;;;9.45;6.38;;;;;;;16.42;100.00;100777.06;5054990;28;20045;-77
2022/05/10 04:12:17;;;;;;;8.80;6.45;;;;;;;16.75;100.00;100783.53;5053406;28;20049;-74
2022/05/10 04:14:46;;;;;;;8.25;6.50;;;;;;;16.64;100.00;100781.66;5054761;28;20053;-75
2022/05/10 04:17:14;;;;;;;9.00;6.63;;;;;;;17.14;100.00;100784.94;5054278;28;20049;-75
2022/05/10 04:19:44;;;;;;;9.02;6.85;;;;;;;17.43;100.00;100778.09;5054349;28;20485;-75
2022/05/10 04:22:13;;;;;;;9.57;6.35;;;;;;;17.55;100.00;100786.16;5053096;28;20045;-75
2022/05/10 04:25:02;;;;;;;8.65;6.15;;;;;;;17.98;100.00;100783.56;5055392;28;20497;-75
2022/05/10 04:27:30;;;;;;;8.10;6.30;;;;;;;17.87;100.00;100791.69;5053274;28;20521;-75
2022/05/10 04:29:59;;;;;;;11.63;6.55;;;;;;;17.49;100.00;100790.25;5054222;28;20041;-75
2022/05/10 04:32:27;;;;;;;8.40;6.18;;;;;;;17.98;100.00;100792.53;5053390;28;20401;-75
2022/05/10 04:34:55;;;;;;;8.43;5.80;;;;;;;17.95;100.00;100790.09;5056810;28;20486;-88
2022/05/10 04:37:23;;;;;;;7.63;6.40;;;;;;;17.56;100.00;100788.75;5054334;28;20122;-75
2022/05/10 04:42:38;;;;;;;10.18;5.80;;;;;;;17.38;100.00;100793.81;5083812;28;20059;-75
2022/05/10 04:45:07;;;;;;;8.93;6.43;;;;;;;17.49;100.00;100806.41;5066095;28;20080;-75
2022/05/10 04:47:36;;;;;;;8.38;6.05;;;;;;;17.89;100.00;100795.13;5052363;28;20486;-75
2022/05/10 04:50:04;;;;;;;8.57;6.00;;;;;;;17.97;100.00;100804.31;5053960;28;20128;-75
2022/05/10 04:52:33;;;;;;;8.35;5.75;;;;;;;18.19;100.00;100800.66;5052236;28;20040;-75
2022/05/10 04:55:02;;;;;;;8.77;5.97;;;;;;;18.02;100.00;100807.47;5052791;28;20220;-75
2022/05/10 04:57:31;;;;;;;8.45;5.80;;;;;;;18.20;100.00;100801.53;5053517;28;20469;-74
2022/05/10 05:00:00;;;;;;;9.02;5.50;;;;;;;18.39;100.00;100808.94;5052300;28;20049;-76
2022/05/10 05:02:29;;;;;;;10.07;5.50;;;;;;;17.99;100.00;100804.16;5052539;28;20099;-75
2022/05/10 05:04:57;;;;;;;6.55;4.97;;;;;;;18.10;100.00;100806.84;5052403;28;20480;-83
2022/05/10 05:07:25;;;;;;;8.07;4.82;;;;;;;18.22;100.00;100810.34;5052422;28;20056;-75
2022/05/10 05:09:53;;;;;;;7.60;5.35;;;;;;;17.70;100.00;100809.25;5066360;28;20049;-75
2022/05/10 05:12:22;;;;;;;8.27;5.20;;;;;;;18.03;100.00;100814.56;5073345;28;20059;-73
2022/05/10 05:14:50;;;;;;;9.07;5.43;;;;;;;17.70;100.00;100810.09;5073764;28;20485;-73
2022/05/10 05:17:20;;;;;;;7.30;4.97;;;;;;;17.80;100.00;100820.16;5073424;28;20405;-74
2022/05/10 05:19:48;;;;;;;8.25;5.18;;;;;;;18.23;100.00;100826.41;5073475;28;20044;-76
2022/05/10 05:22:17;;;;;;;7.75;5.35;;;;;;;18.49;100.00;100815.28;5070380;28;20501;-75
2022/05/10 05:24:45;;;;;;;10.15;5.13;;;;;;;18.45;100.00;100816.53;5071742;28;20497;-75
2022/05/10 05:27:13;;;;;;;8.43;4.43;;;;;;;18.53;100.00;100820.31;5071770;28;20135;-75
2022/05/10 05:29:42;;;;;;;9.32;4.60;;;;;;;18.12;100.00;100826.47;5072080;28;20052;-75
2022/05/10 05:32:34;;;;;;;7.72;4.45;;;;;;;18.60;100.00;100826.03;5073327;28;20436;-74
2022/05/10 05:35:03;;;;;;;10.20;4.97;;;;;;;18.70;100.00;100832.41;5072886;28;20064;-74
2022/05/10 05:37:35;;;;;;;10.23;5.32;;;;;;;18.80;100.00;100827.06;5069043;28;20047;-81
2022/05/10 05:40:08;;;;;;;9.00;5.15;;;;;;;19.09;100.00;100828.13;5071234;28;20052;-80
2022/05/10 05:42:45;;;;;;;8.65;5.05;;;;;;;19.47;100.00;100826.63;5070197;28;20412;-79
2022/05/10 05:45:15;;;;;;;8.02;4.72;;;;;;;19.65;100.00;100827.72;5070446;28;20139;-81
2022/05/10 05:47:45;;;;;;;6.47;4.40;;;;;;;20.44;100.00;100822.38;5070891;28;20071;-78
2022/05/10 05:50:16;;;;;;;9.45;4.60;;;;;;;21.16;100.00;100821.03;5069819;28;20056;-77
2022/05/10 05:52:45;;;;;;;7.22;4.40;;;;;;;21.38;100.00;100822.56;5071483;28;20072;-75
2022/05/10 05:55:14;;;;;;;10.07;4.55;;;;;;;21.37;100.00;100815.41;5071332;28;20106;-75
2022/05/10 05:57:45;;;;;;;7.35;4.60;;;;;;;21.56;100.00;100826.19;5071759;28;20047;-75
2022/05/10 06:00:16;;;;;;;8.63;4.43;;;;;;;22.11;100.00;100818.09;5072750;28;20498;-73
2022/05/10 06:02:46;;;;;;;8.80;4.43;;;;;;;22.51;100.00;100816.78;5072751;28;20467;-76
2022/05/10 06:05:15;;;;;;;6.93;4.25;;;;;;;22.38;88.70;100835.31;5074838;28;20085;-82
2022/05/10 06:07:43;;;;;;;7.97;4.55;;;;;;;22.36;76.74;100826.47;5077113;28;20559;-77
2022/05/10 06:10:12;;;;;;;6.72;3.97;;;;;;;21.96;75.10;100833.13;5075669;28;20056;-76
2022/05/10 06:12:42;;;;;;;8.40;4.15;;;;;;;22.56;73.28;100830.75;5075788;28;20563;-75
2022/05/10 06:15:13;;;;;;;7.72;4.30;;;;;;;23.14;69.13;100833.81;5076978;28;20541;-74
2022/05/10 06:17:45;;;;;;;7.88;4.30;;;;;;;23.19;61.94;100825.19;5075705;28;20056;-74
2022/05/10 06:20:17;;;;;;;7.07;3.83;;;;;;;23.94;53.19;100825.44;5075342;28;20090;-71
2022/05/10 06:22:45;;;;;;;6.10;3.67;;;;;;;23.96;48.33;100828.84;5077042;28;20098;-71
2022/05/10 06:25:17;;;;;;;6.35;3.50;;;;;;;24.02;48.46;100827.31;5076795;28;20094;-72
2022/05/10 06:27:47;;;;;;;9.13;3.95;;;;;;;24.47;46.96;100830.50;5076509;28;20040;-71
2022/05/10 06:30:15;;;;;;;7.80;3.53;;;;;;;24.81;43.70;100833.09;5071311;28;20128;-74
2022/05/10 06:32:46;;;;;;;6.75;3.60;;;;;;;23.86;46.29;100831.69;5056545;28;20119;-73
2022/05/10 06:35:18;;;;;;;6.18;3.53;;;;;;;24.79;44.65;100817.91;5055294;28;20045;-73
2022/05/10 06:40:37;;;;;;;9.65;3.67;;;;;;;23.29;46.17;100820.47;5089177;28;20049;-73
2022/05/10 06:43:05;;;;;;;7.97;3.80;;;;;;;24.14;45.89;100823.28;5075079;28;20052;-73
2022/05/10 06:45:33;;;;;;;6.60;3.53;;;;;;;24.25;44.38;100820.22;5074860;28;20131;-72
2022/05/10 06:48:03;;;;;;;6.90;3.40;;;;;;;24.90;42.94;100814.88;5075683;28;20052;-74
2022/05/10 06:50:32;;;;;;;5.57;3.55;;;;;;;24.15;42.99;100824.97;5074817;28;20053;-74
2022/05/10 06:53:00;;;;;;;5.43;3.50;;;;;;;24.30;44.33;100817.84;5074855;28;20049;-77
2022/05/10 06:55:31;;;;;;;7.07;3.55;;;;;;;24.53;43.66;100807.19;5075678;28;20481;-74
2022/05/10 06:58:05;;;;;;;7.20;3.65;;;;;;;23.60;44.90;100811.81;5076040;28;20090;-74
2022/05/10 07:00:36;;;;;;;6.25;3.78;;;;;;;23.22;46.16;100813.09;5074544;28;20075;-74
2022/05/10 07:03:07;;;;;;;7.28;3.30;;;;;;;23.15;46.60;100810.16;5076123;28;20041;-74
2022/05/10 07:05:36;;;;;;;7.45;3.90;;;;;;;22.93;46.88;100802.53;5075758;28;20047;-74
2022/05/10 07:08:05;;;;;;;4.82;3.20;;;;;;;22.80;46.67;100808.38;5075557;28;20045;-74
2022/05/10 07:10:34;;;;;;;5.10;3.58;;;;;;;22.60;46.50;100815.84;5075438;28;20504;-73
2022/05/10 07:13:02;;;;;;;7.22;3.40;;;;;;;22.34;46.58;100804.03;5075724;28;20655;-72
2022/05/10 07:15:31;;;;;;;7.40;3.42;;;;;;;22.53;45.09;100814.75;5074130;28;20389;-72
2022/05/10 07:17:59;;;;;;;5.95;3.53;;;;;;;22.10;46.09;100807.34;5074651;28;20057;-72
2022/05/10 07:20:31;;;;;;;6.25;3.28;;;;;;;22.15;44.70;100816.75;5073936;28;20051;-72
2022/05/10 07:22:59;;;;;;;7.10;3.67;;;;;;;22.00;45.42;100815.53;5075287;28;20482;-72
2022/05/10 07:25:29;;;;;;;5.25;3.17;;;;;;;22.04;46.69;100810.66;5073605;28;20071;-72
2022/05/10 07:27:57;;;;;;;5.75;3.00;;;;;;;22.12;44.32;100811.63;5075057;28;20047;-73
2022/05/10 07:30:28;;;;;;;5.10;3.08;;;;;;;22.10;43.66;100819.09;5074915;28;20041;-72
2022/05/10 07:32:56;;;;;;;6.90;3.22;;;;;;;21.81;44.62;100818.34;5074081;28;20453;-72
2022/05/10 07:38:10;;;;;;;6.82;3.25;;;;;;;21.67;46.25;100817.84;5074418;28;20481;-72
2022/05/10 07:40:39;;;;;;;6.68;3.50;;;;;;;21.56;46.71;100825.34;5074688;28;20045;-72
2022/05/10 07:43:10;;;;;;;5.82;3.38;;;;;;;21.42;46.77;100823.94;5074971;28;20492;-71
2022/05/10 07:45:39;;;;;;;7.60;3.65;;;;;;;21.29;46.49;100823.44;5073821;28;20049;-72
2022/05/10 07:48:07;;;;;;;7.03;4.00;;;;;;;21.35;47.09;100815.56;5074968;28;20058;-73
2022/05/10 07:50:36;;;;;;;6.85;3.53;;;;;;;21.47;48.32;100821.66;5075006;28;20063;-73
2022/05/10 07:53:07;;;;;;;9.02;3.78;;;;;;;21.40;48.10;100820.53;5074057;28;20045;-72
2022/05/10 07:55:38;;;;;;;6.95;3.60;;;;;;;21.69;48.52;100814.97;5074902;28;20473;-72
2022/05/10 07:58:08;;;;;;;7.18;3.55;;;;;;;21.73;47.95;100810.97;5073755;28;20058;-73
2022/05/10 08:00:38;;;;;;;7.38;3.78;;;;;;;21.62;47.03;100814.75;5074806;28;20424;-74
2022/05/10 08:03:14;;;;;;;7.28;3.47;;;;;;;21.61;47.81;100813.00;5075173;28;20127;-74
2022/05/10 08:05:44;;;;;;;7.65;3.42;;;;;;;21.85;47.54;100809.75;5073372;28;20052;-74
2022/05/10 08:08:17;;;;;;;7.90;3.40;;;;;;;22.04;45.55;100813.38;5074476;28;20052;-74
2022/05/10 08:10:48;;;;;;;;;;;;;;;22.11;45.91;100809.94;5074589;28;20044;-74
2022/05/10 08:13:23;;;;;;;8.00;3.85;;;;;;;21.99;44.99;100805.66;5073103;28;20003;-74
2022/05/10 08:15:52;;;;;;;7.72;3.80;;;;;;;21.83;45.83;100813.66;5074804;28;20045;-73
2022/05/10 08:18:22;;;;;;;7.10;3.88;;;;;;;21.87;47.16;100806.88;5074314;28;20086;-73
2022/05/10 08:20:54;;;;;;;7.43;3.53;;;;;;;21.97;45.83;100807.69;5074317;28;20466;-74
2022/05/10 08:23:25;;;;;;;10.45;3.50;;;;;;;21.87;45.56;100796.88;5090298;28;20056;-73
2022/05/10 08:25:58;;;;;;;6.57;3.75;;;;;;;21.72;46.16;100801.13;5073335;28;20393;-74
2022/05/10 08:28:29;;;;;;;7.45;3.58;;;;;;;21.79;45.83;100806.78;5073300;28;20393;-74
2022/05/10 08:30:58;;;;;;;8.25;4.18;;;;;;;21.71;45.81;100803.00;5073049;28;20135;-74
2022/05/10 08:33:29;;;;;;;8.88;4.00;;;;;;;22.02;45.28;100805.38;5073827;28;20486;-74
2022/05/10 08:35:58;;;;;;;5.30;3.47;;;;;;;21.90;43.66;100803.88;5072835;28;20050;-74
2022/05/10 08:38:29;;;;;;;7.82;3.75;;;;;;;22.06;44.97;100798.63;5073686;28;20500;-74
2022/05/10 08:41:03;;;;;;;8.88;3.53;;;;;;;22.13;44.50;100799.75;5073980;28;20063;-74
2022/05/10 08:43:39;;;;;;;6.63;3.58;;;;;;;22.12;44.23;100798.06;5072401;28;20135;-74
2022/05/10 08:46:10;;;;;;;5.72;3.50;;;;;;;22.17;45.13;100798.44;5072505;28;20250;-74
2022/05/10 08:48:39;;;;;;;8.20;3.65;;;;;;;22.26;44.07;100791.22;5071964;28;20057;-74
2022/05/10 08:51:09;;;;;;;8.25;3.80;;;;;;;22.20;44.07;100798.16;5072232;28;20052;-74
2022/05/10 08:53:39;;;;;;;6.47;3.40;;;;;;;22.18;44.70;100786.56;5073143;28;20071;-74
2022/05/10 08:56:16;;;;;;;6.13;3.05;;;;;;;22.33;43.41;100796.91;5089011;28;20052;-73
2022/05/10 08:58:49;;;;;;;5.03;3.13;;;;;;;22.48;42.70;100779.88;5071501;28;20052;-74
2022/05/10 09:01:45;;;;;;;5.28;3.30;;;;;;;22.55;42.95;100780.09;5072192;28;20075;-74
2022/05/10 09:04:28;;;;;;;7.63;3.40;;;;;;;22.73;42.43;100777.38;5073654;28;20040;-74
2022/05/10 09:07:06;;;;;;;6.82;3.20;;;;;;;22.83;40.37;100778.97;5072505;28;20052;-74
2022/05/10 09:09:51;;;;;;;5.75;3.33;;;;;;;22.98;40.02;100778.44;5073168;28;20139;-74
2022/05/10 09:12:23;;;;;;;7.78;3.28;;;;;;;22.90;39.46;100779.25;5072334;28;20059;-73
2022/05/10 09:14:56;;;;;;;6.72;3.15;;;;;;;22.74;40.62;100777.22;5072422;28;20059;-74
2022/05/10 09:17:29;;;;;;;5.00;3.10;;;;;;;22.96;40.56;100780.44;5072336;28;20135;-74
2022/05/10 09:19:59;;;;;;;8.10;3.35;;;;;;;23.10;38.98;100786.19;5072370;28;20044;-74
2022/05/10 09:23:14;;;;;;;6.88;3.13;;;;;;;23.09;39.28;100786.34;5073440;28;20115;-74
2022/05/10 09:25:45;;;;;;;5.60;3.28;;;;;;;22.78;39.33;100781.34;5070151;28;20063;-74
2022/05/10 09:28:30;;;;;;;4.97;3.03;;;;;;;22.83;39.54;100776.25;5072219;28;20147;-73
2022/05/10 09:34:46;;;;;;;6.75;3.33;;;;;;;23.10;39.38;100775.28;5072869;28;20133;-74
2022/05/10 09:37:22;;;;;;;7.05;3.70;;;;;;;23.27;39.39;100773.53;5071616;28;20048;-74
2022/05/10 09:40:00;;;;;;;;;;;;;;;23.48;39.33;100775.00;5072842;28;20044;-73
2022/05/10 09:42:33;;;;;;;8.02;3.20;;;;;;;23.55;39.46;100770.59;5073236;28;19955;-74
2022/05/10 09:45:06;;;;;;;5.85;3.67;;;;;;;23.49;38.60;100779.41;5072069;28;20373;-74
2022/05/10 09:47:35;;;;;;;7.13;3.58;;;;;;;23.34;39.13;100774.56;5071283;28;20056;-73
2022/05/10 09:50:15;;;;;;;5.55;3.75;;;;;;;23.17;38.73;100772.78;5071873;28;20048;-73
2022/05/10 09:52:44;;;;;;;5.68;3.50;;;;;;;23.04;38.97;100769.63;5072401;28;20036;-73
2022/05/10 09:55:25;;;;;;;7.85;3.47;;;;;;;23.36;39.54;100761.66;5071698;28;20044;-73
2022/05/10 09:57:56;;;;;;;7.75;3.38;;;;;;;23.59;38.73;100759.22;5072638;28;20053;-73
2022/05/10 10:00:41;;;;;;;6.25;4.00;;;;;;;23.57;38.35;100763.97;5071650;28;20052;-73
2022/05/10 10:03:22;;;;;;;6.20;3.58;;;;;;;23.51;38.29;100758.31;5073009;28;20063;-74
2022/05/10 10:05:50;;;;;;;7.45;3.67;;;;;;;23.18;38.40;100757.31;5072775;28;20071;-75
2022/05/10 10:08:19;;;;;;;7.18;3.50;;;;;;;23.03;39.07;100751.59;5072833;28;20036;-74
2022/05/10 10:10:47;;;;;;;7.47;3.90;;;;;;;22.66;39.15;100749.94;5071104;28;20502;-72
2022/05/10 10:13:29;;;;;;;5.85;3.80;;;;;;;22.83;39.06;100748.22;5072635;28;20127;-72
2022/05/10 10:15:58;;;;;;;5.63;3.60;;;;;;;22.75;39.65;100746.28;5071607;28;20072;-74
2022/05/10 10:18:44;;;;;;;6.35;3.65;;;;;;;23.03;39.73;100743.44;5071326;28;20490;-73
2022/05/10 10:21:18;;;;;;;6.45;3.65;;;;;;;23.10;39.33;100741.78;5072427;28;20040;-72
2022/05/10 10:23:52;;;;;;;6.55;3.60;;;;;;;23.43;38.52;100738.19;5070654;28;20053;-73
2022/05/10 10:26:31;;;;;;;8.30;3.95;;;;;;;23.53;38.37;100740.78;5072034;28;20037;-73
2022/05/10 10:29:13;;;;;;;7.15;3.60;;;;;;;23.61;38.29;100740.00;5072486;28;20047;-73
2022/05/10 10:31:45;;;;;;;7.22;3.53;;;;;;;23.62;38.54;100734.38;5072482;28;20543;-74
2022/05/10 10:34:19;;;;;;;7.72;3.85;;;;;;;23.52;38.75;100738.22;5071396;28;20131;-74
2022/05/10 10:36:53;;;;;;;6.35;3.47;;;;;;;23.49;38.32;100719.50;5072395;28;20037;-74
2022/05/10 10:39:33;;;;;;;8.95;3.90;;;;;;;23.37;38.87;100721.69;5071055;28;20472;-74
2022/05/10 10:42:10;;;;;;;6.95;3.83;;;;;;;23.39;38.78;100725.94;5072004;28;20036;-74
2022/05/10 10:44:43;;;;;;;9.52;4.07;;;;;;;23.52;38.90;100719.19;5070818;28;20106;-75
2022/05/10 10:47:22;;;;;;;8.18;3.92;;;;;;;23.53;38.80;100710.00;5072386;28;20075;-74
2022/05/10 10:49:59;;;;;;;5.90;3.47;;;;;;;23.85;38.48;100717.44;5070876;28;20063;-74
2022/05/10 10:52:29;;;;;;;8.93;3.65;;;;;;;24.31;37.46;100713.25;5074519;28;20044;-73
2022/05/10 10:54:57;;;;;;;6.80;3.60;;;;;;;24.45;37.21;100707.13;5075791;28;20076;-73
2022/05/10 10:57:49;;;;;;;8.10;3.30;;;;;;;24.87;36.92;100705.19;5074850;28;20408;-73
2022/05/10 11:00:20;;;;;;;6.43;3.90;;;;;;;24.66;36.18;100697.56;5074809;28;20223;-73
2022/05/10 11:03:16;;;;;;;5.65;3.80;;;;;;;24.90;35.91;100693.94;5075605;28;20473;-73
2022/05/10 11:06:02;;;;;;;8.05;3.92;;;;;;;25.06;35.25;100694.78;5068952;28;20052;-73
2022/05/10 11:08:54;;;;;;;5.97;3.40;;;;;;;24.72;35.97;100691.44;5075641;28;20040;-74
2022/05/10 11:11:31;;;;;;;7.05;3.50;;;;;;;24.81;36.99;100687.66;5074655;28;20071;-73
2022/05/10 11:14:13;;;;;;;5.50;3.17;;;;;;;24.60;36.47;100682.72;5074282;28;20102;-74
2022/05/10 11:16:54;;;;;;;5.67;2.90;;;;;;;24.88;37.09;100675.00;5075691;28;20125;-75
2022/05/10 11:19:48;;;;;;;6.82;3.40;;;;;;;24.87;36.85;100676.03;5075974;28;20308;-74
2022/05/10 11:22:32;;;;;;;7.30;3.42;;;;;;;25.00;37.47;100672.78;5075369;28;20522;-74
2022/05/10 11:25:09;;;;;;;7.30;3.38;;;;;;;24.88;36.55;100675.00;5075418;28;20090;-74
2022/05/10 11:27:53;;;;;;;7.25;3.60;;;;;;;24.21;38.34;100671.66;5075316;28;20496;-79
2022/05/10 11:30:28;;;;;;;6.30;3.38;;;;;;;24.04;38.88;100672.69;5074421;28;20059;-74
2022/05/10 11:33:09;;;;;;;7.50;3.20;;;;;;;24.02;38.31;100666.53;5074074;28;20417;-74
2022/05/10 11:36:00;;;;;;;8.05;3.55;;;;;;;23.97;38.40;100658.88;5073821;28;20049;-81
2022/05/10 11:38:54;;;;;;;6.68;3.25;;;;;;;23.98;39.37;100657.88;5071214;28;20044;-73
2022/05/10 11:41:31;;;;;;;6.07;3.25;;;;;;;23.60;39.80;100670.22;5075131;28;20037;-74
2022/05/10 11:44:32;;;;;;;7.53;3.40;;;;;;;23.37;40.30;100668.09;5073896;28;20052;-74
2022/05/10 11:47:18;;;;;;;5.90;3.42;;;;;;;23.36;39.88;100660.94;5085947;28;20048;-74
2022/05/10 11:50:17;;;;;;;6.53;3.20;;;;;;;23.32;40.33;100654.13;5073477;28;20469;-74
2022/05/10 11:53:18;;;;;;;7.95;3.40;;;;;;;23.18;41.95;100654.75;5073503;28;20505;-72
2022/05/10 11:55:54;;;;;;;5.90;2.95;;;;;;;23.20;41.34;100654.59;5072144;28;20048;-72
2022/05/10 11:58:25;;;;;;;5.85;3.25;;;;;;;23.29;41.16;100654.47;5073626;28;20048;-73
2022/05/10 12:00:55;;;;;;;9.07;3.70;;;;;;;23.22;41.59;100650.69;5073692;28;20048;-74
2022/05/10 12:03:50;;;;;;;9.88;3.20;;;;;;;23.17;42.49;100647.63;5073364;28;20118;-74